Gallivare Airport


Codes: ESNG/GEV
Name: Gallivare Airport
City: Gallivare
Country: Sweden
Elevation: 1027 ft.
Wikipedia:

Photos at Gallivare Airport


   Photos courtesy of SpottingLog. You can add your own sightings and photos by signing up for a free trial today.



No photos found.

Weather at Gallivare Airport


Time (UTC)DescriptionTempratureWindCloud coverageVisibilityPressureHumidity
19-Apr-2024 06:00Scattered Clouds-11°C4 mph, SE33%6765m1017hPa89%
19-Apr-2024 09:00Light Snow-7°C7 mph, SE66%587m1019hPa86%
19-Apr-2024 12:00Light Snow-3°C7 mph, SE100%5874m1019hPa83%
19-Apr-2024 15:00Light Snow-4°C4 mph, SE100%10000m1019hPa84%
19-Apr-2024 18:00Overcast Clouds-7°C2 mph, NE99%10000m1020hPa94%
19-Apr-2024 21:00Overcast Clouds-11°C4 mph, N100%10000m1020hPa97%
20-Apr-2024 00:00Overcast Clouds-9°C4 mph, N100%2408m1020hPa97%
20-Apr-2024 03:00Overcast Clouds-10°C4 mph, N100%4433m1020hPa98%
20-Apr-2024 06:00Overcast Clouds-6°C9 mph, N100%6499m1020hPa90%
20-Apr-2024 09:00Overcast Clouds-5°C13 mph, N100%10000m1020hPa76%
20-Apr-2024 12:00Overcast Clouds-5°C13 mph, NE100%10000m1022hPa75%
20-Apr-2024 15:00Overcast Clouds-5°C11 mph, N86%10000m1024hPa82%
20-Apr-2024 18:00Overcast Clouds-7°C9 mph, N88%10000m1027hPa89%
20-Apr-2024 21:00Broken Clouds-11°C7 mph, N60%10000m1030hPa95%
21-Apr-2024 00:00Broken Clouds-14°C4 mph, N60%10000m1033hPa97%
21-Apr-2024 03:00Scattered Clouds-14°C4 mph, N43%10000m1035hPa97%
21-Apr-2024 06:00Scattered Clouds-8°C4 mph, N31%10000m1036hPa87%
21-Apr-2024 09:00Scattered Clouds-5°C4 mph, NE38%10000m1037hPa78%
21-Apr-2024 12:00Broken Clouds-2°C4 mph, E54%10000m1037hPa73%
21-Apr-2024 15:00Overcast Clouds-2°C4 mph, E98%10000m1037hPa74%
21-Apr-2024 18:00Overcast Clouds-6°C2 mph, SE97%10000m1038hPa94%
21-Apr-2024 21:00Scattered Clouds-11°C2 mph, W29%10000m1039hPa96%
22-Apr-2024 00:00Scattered Clouds-13°C0 mph, SW26%10000m1039hPa98%
22-Apr-2024 03:00Scattered Clouds-13°C2 mph, S49%6566m1038hPa99%
22-Apr-2024 06:00Broken Clouds-5°C4 mph, SE52%10000m1035hPa91%
22-Apr-2024 09:00Light Snow-3°C9 mph, SE96%8561m1033hPa82%
22-Apr-2024 12:00Light Snow-2°C7 mph, SE98%4985m1031hPa82%
22-Apr-2024 15:00Light Snow-3°C7 mph, SE100%2809m1030hPa85%
22-Apr-2024 18:00Light Snow-5°C4 mph, SE99%10000m1028hPa94%
22-Apr-2024 21:00Overcast Clouds-9°C2 mph, E100%382m1028hPa99%
23-Apr-2024 00:00Overcast Clouds-12°C2 mph, NE99%3855m1027hPa100%
23-Apr-2024 03:00Overcast Clouds-12°C2 mph, NE100%712m1026hPa98%
23-Apr-2024 06:00Overcast Clouds-7°C2 mph, NE99%10000m1024hPa89%
23-Apr-2024 09:00Overcast Clouds-4°C7 mph, NE92%10000m1022hPa81%
23-Apr-2024 12:00Overcast Clouds-2°C9 mph, NE93%10000m1020hPa82%
23-Apr-2024 15:00Light Snow-2°C9 mph, NE100%235m1019hPa94%
23-Apr-2024 18:00Light Snow-2°C9 mph, N100%191m1018hPa96%
23-Apr-2024 21:00Light Snow-4°C9 mph, N100%365m1018hPa95%
24-Apr-2024 00:00Light Snow-4°C7 mph, N100%155m1017hPa96%
24-Apr-2024 03:00Light Snow-4°C9 mph, N100%279m1017hPa96%